Time;durP1;ratioP1;P1;durP2;ratioP2;P2;SDS_P1;SDS_P2;PMS_P1;PMS_P2;Temp;Humidity;BMP_temperature;BMP_pressure;BME280_temperature;BME280_humidity;BME280_pressure;Samples;Min_cycle;Max_cycle;Signal;HPM_P1;HPM_P2
2021/07/07 00:02:11;;;;;;;0.70;0.70;;;20.00;80.10;;;;;;5085502;27;20075;-64
2021/07/07 00:04:37;;;;;;;2.15;0.80;;;20.00;80.10;;;;;;5082927;27;20036;-64
2021/07/07 00:07:03;;;;;;;1.30;0.70;;;20.10;80.20;;;;;;5081160;28;20039;-64
2021/07/07 00:09:28;;;;;;;1.65;0.80;;;20.10;80.00;;;;;;5084032;27;20036;-64
2021/07/07 00:11:54;;;;;;;3.05;1.08;;;20.00;79.90;;;;;;5080645;28;20043;-64
2021/07/07 00:14:20;;;;;;;2.53;0.80;;;20.00;80.00;;;;;;5082533;28;20435;-64
2021/07/07 00:16:45;;;;;;;1.60;0.70;;;20.00;80.10;;;;;;5083323;27;20063;-64
2021/07/07 00:19:11;;;;;;;2.65;0.75;;;20.00;80.30;;;;;;5086347;27;20471;-64
2021/07/07 00:21:36;;;;;;;1.10;1.00;;;20.00;80.50;;;;;;5083016;27;20159;-63
2021/07/07 00:24:02;;;;;;;2.85;0.80;;;19.90;80.50;;;;;;5086085;28;20453;-64
2021/07/07 00:26:28;;;;;;;1.95;0.98;;;19.90;80.50;;;;;;5080087;27;20066;-63
2021/07/07 00:28:53;;;;;;;0.80;0.80;;;19.90;80.60;;;;;;5083073;28;20032;-64
2021/07/07 00:31:20;;;;;;;2.00;0.77;;;19.90;80.70;;;;;;5082145;28;20578;-66
2021/07/07 00:33:46;;;;;;;2.90;0.80;;;19.90;80.80;;;;;;5085200;27;20111;-64
2021/07/07 00:36:11;;;;;;;1.70;0.90;;;19.90;81.00;;;;;;5083997;27;20173;-64
2021/07/07 00:38:37;;;;;;;4.20;1.20;;;19.90;80.90;;;;;;5083290;27;20108;-65
2021/07/07 00:41:03;;;;;;;2.75;0.85;;;19.90;80.90;;;;;;5086139;27;20043;-64
2021/07/07 00:43:28;;;;;;;3.20;0.88;;;19.90;80.90;;;;;;5084326;28;20028;-64
2021/07/07 00:45:54;;;;;;;1.45;0.73;;;19.90;80.90;;;;;;5085040;27;20040;-63
2021/07/07 00:48:20;;;;;;;1.80;1.00;;;19.90;80.80;;;;;;5084806;28;20102;-64
2021/07/07 00:50:48;;;;;;;2.45;0.85;;;19.90;80.70;;;;;;5087033;27;20058;-64
2021/07/07 00:53:14;;;;;;;1.17;0.70;;;19.90;80.50;;;;;;5081481;27;20446;-64
2021/07/07 00:55:41;;;;;;;1.13;0.80;;;20.00;80.50;;;;;;5081686;28;20123;-64
2021/07/07 00:58:10;;;;;;;1.45;0.73;;;20.00;80.50;;;;;;5084624;27;20029;-64
2021/07/07 01:00:35;;;;;;;0.85;0.85;;;20.00;80.40;;;;;;5082293;28;20395;-64
2021/07/07 01:03:02;;;;;;;3.63;1.30;;;19.90;80.40;;;;;;5080709;28;20032;-63
2021/07/07 01:05:28;;;;;;;0.82;0.75;;;20.00;80.60;;;;;;5083272;28;20418;-64
2021/07/07 01:07:54;;;;;;;5.03;0.90;;;20.00;81.40;;;;;;5084286;28;20032;-64
2021/07/07 01:10:20;;;;;;;3.42;1.00;;;20.00;80.60;;;;;;5080541;28;20118;-64
2021/07/07 01:12:46;;;;;;;1.85;0.80;;;20.00;80.50;;;;;;5077750;27;20123;-63
2021/07/07 01:15:15;;;;;;;1.10;1.00;;;20.00;80.50;;;;;;5083601;28;20030;-64
2021/07/07 01:17:41;;;;;;;0.70;0.70;;;20.00;80.30;;;;;;5080941;27;20556;-64
2021/07/07 01:20:10;;;;;;;1.42;0.85;;;20.00;80.10;;;;;;5084642;28;20032;-63
2021/07/07 01:22:36;;;;;;;3.22;0.93;;;20.00;80.10;;;;;;5081774;27;20058;-63
2021/07/07 01:25:04;;;;;;;0.80;0.80;;;20.00;80.20;;;;;;5083311;27;20032;-63
2021/07/07 01:27:30;;;;;;;1.80;1.00;;;20.00;80.30;;;;;;5082430;27;20036;-64
2021/07/07 01:29:56;;;;;;;1.08;0.98;;;20.00;80.10;;;;;;5083705;27;20134;-64
2021/07/07 01:32:23;;;;;;;2.63;0.90;;;20.00;80.00;;;;;;5081878;27;20032;-62
2021/07/07 01:34:50;;;;;;;2.10;1.00;;;20.00;80.00;;;;;;5082175;27;20053;-64
2021/07/07 01:37:15;;;;;;;1.13;0.90;;;20.00;80.00;;;;;;5081208;27;20032;-64
2021/07/07 01:39:42;;;;;;;1.23;1.00;;;20.00;80.00;;;;;;5080972;28;20083;-63
2021/07/07 01:42:08;;;;;;;0.88;0.88;;;20.00;80.10;;;;;;5084944;27;20441;-64
2021/07/07 01:44:33;;;;;;;2.00;0.80;;;19.90;80.10;;;;;;5076150;27;20032;-64
2021/07/07 01:47:00;;;;;;;1.52;0.80;;;20.00;80.20;;;;;;5082247;28;20035;-63
2021/07/07 01:49:26;;;;;;;2.55;0.90;;;20.00;80.10;;;;;;5081728;27;20704;-63
2021/07/07 01:51:51;;;;;;;1.48;0.70;;;20.00;80.30;;;;;;5081470;28;20048;-64
2021/07/07 01:54:17;;;;;;;1.65;0.77;;;20.00;80.30;;;;;;5083269;27;20062;-63
2021/07/07 01:56:42;;;;;;;0.82;0.80;;;20.00;80.10;;;;;;5082897;27;20513;-63
2021/07/07 01:59:08;;;;;;;2.65;0.75;;;20.00;80.20;;;;;;5083351;28;20043;-64
2021/07/07 02:01:34;;;;;;;1.00;0.70;;;20.00;80.10;;;;;;5080379;28;20059;-64
2021/07/07 02:03:59;;;;;;;0.70;0.70;;;20.00;80.20;;;;;;5080204;28;20499;-63
2021/07/07 02:06:25;;;;;;;3.35;0.80;;;20.00;80.20;;;;;;5084955;27;20036;-62
2021/07/07 02:08:51;;;;;;;2.25;0.80;;;20.00;80.10;;;;;;5079126;28;20031;-63
2021/07/07 02:11:16;;;;;;;0.80;0.75;;;20.00;80.10;;;;;;5098071;27;20511;-64
2021/07/07 02:13:42;;;;;;;0.65;0.60;;;20.00;80.10;;;;;;5082885;27;20024;-64
2021/07/07 02:16:08;;;;;;;1.33;0.70;;;20.10;80.10;;;;;;5083205;28;20148;-63
2021/07/07 02:18:33;;;;;;;2.25;0.80;;;19.90;80.80;;;;;;5079908;27;20035;-64
2021/07/07 02:20:59;;;;;;;0.68;0.68;;;19.90;80.00;;;;;;5081380;27;20036;-63
2021/07/07 02:23:26;;;;;;;1.98;0.57;;;20.00;80.10;;;;;;5079192;28;20055;-63
2021/07/07 02:25:52;;;;;;;1.48;0.80;;;19.90;80.20;;;;;;5085310;27;20492;-63
2021/07/07 02:28:24;;;;;;;0.77;0.57;;;19.90;80.10;;;;;;5089237;28;20043;-64
2021/07/07 02:30:49;;;;;;;1.45;0.75;;;19.90;80.00;;;;;;5088908;28;20043;-64
2021/07/07 02:33:15;;;;;;;1.17;0.55;;;19.90;80.00;;;;;;5080618;28;20036;-64
2021/07/07 02:35:43;;;;;;;1.25;0.80;;;19.90;80.10;;;;;;5086669;28;20109;-63
2021/07/07 02:38:12;;;;;;;0.85;0.80;;;19.90;80.10;;;;;;5082887;27;20032;-64
2021/07/07 02:40:39;;;;;;;2.05;0.80;;;19.90;80.10;;;;;;5087076;27;20555;-64
2021/07/07 02:43:06;;;;;;;0.80;0.70;;;19.90;80.10;;;;;;5082486;28;20036;-63
2021/07/07 02:45:33;;;;;;;1.83;0.98;;;19.90;80.20;;;;;;5075220;28;20491;-64
2021/07/07 02:47:59;;;;;;;0.60;0.60;;;19.80;80.10;;;;;;5081586;28;20028;-63
2021/07/07 02:50:25;;;;;;;1.00;0.80;;;19.80;80.30;;;;;;5079745;27;20067;-64
2021/07/07 02:52:52;;;;;;;0.90;0.80;;;19.80;80.30;;;;;;5085064;27;20028;-64
2021/07/07 02:55:20;;;;;;;1.55;0.82;;;19.70;80.40;;;;;;5085868;28;20024;-64
2021/07/07 03:00:24;;;;;;;2.60;0.90;;;19.70;80.50;;;;;;5087872;27;20033;-64
2021/07/07 03:02:49;;;;;;;2.75;0.90;;;19.70;80.70;;;;;;5089993;28;20047;-63
2021/07/07 03:05:15;;;;;;;1.67;0.80;;;19.60;80.60;;;;;;5082530;27;20039;-63
2021/07/07 03:07:41;;;;;;;3.60;1.00;;;19.60;80.80;;;;;;5086152;28;20074;-64
2021/07/07 03:10:08;;;;;;;5.10;1.15;;;19.60;81.00;;;;;;5087738;27;20056;-63
2021/07/07 03:12:34;;;;;;;2.97;0.95;;;19.50;81.20;;;;;;5085103;27;20115;-63
2021/07/07 03:15:00;;;;;;;0.90;0.90;;;19.50;81.30;;;;;;5083131;28;20047;-64
2021/07/07 03:17:26;;;;;;;4.00;0.80;;;19.40;81.30;;;;;;5086711;27;20090;-63
2021/07/07 03:19:52;;;;;;;1.00;0.75;;;19.40;81.50;;;;;;5084616;28;20408;-64
2021/07/07 03:22:18;;;;;;;0.73;0.73;;;19.30;81.70;;;;;;5081112;28;20032;-63
2021/07/07 03:24:44;;;;;;;3.30;0.70;;;19.30;81.80;;;;;;5099300;27;20046;-64
2021/07/07 03:27:10;;;;;;;1.05;0.75;;;19.30;81.90;;;;;;5088374;28;20127;-64
2021/07/07 03:29:36;;;;;;;1.50;0.77;;;19.30;81.70;;;;;;5085649;27;20119;-63
2021/07/07 03:32:02;;;;;;;4.00;0.95;;;19.30;81.90;;;;;;5088809;27;20040;-63
2021/07/07 03:34:27;;;;;;;1.15;1.00;;;19.30;82.00;;;;;;5080945;27;20032;-64
2021/07/07 03:36:53;;;;;;;1.73;0.88;;;19.30;81.90;;;;;;5080505;27;20489;-64
2021/07/07 03:39:19;;;;;;;1.05;0.93;;;19.30;81.90;;;;;;5081693;28;20036;-64
2021/07/07 03:41:44;;;;;;;2.67;0.93;;;19.20;82.00;;;;;;5081345;27;20028;-64
2021/07/07 03:44:10;;;;;;;4.32;0.93;;;19.20;82.10;;;;;;5083916;28;20043;-64
2021/07/07 03:46:35;;;;;;;1.00;0.88;;;19.20;82.20;;;;;;5079045;28;20687;-63
2021/07/07 03:49:01;;;;;;;2.33;1.05;;;19.30;82.20;;;;;;5079843;27;20036;-63
2021/07/07 03:51:26;;;;;;;1.90;0.80;;;19.30;82.30;;;;;;5083782;28;20072;-64
2021/07/07 03:53:52;;;;;;;6.43;1.08;;;19.30;82.20;;;;;;5081365;27;20063;-65
2021/07/07 03:56:18;;;;;;;0.98;0.70;;;19.30;82.10;;;;;;5082871;28;20608;-64
2021/07/07 03:58:43;;;;;;;1.75;0.88;;;19.30;81.90;;;;;;5084089;27;20050;-64
2021/07/07 04:01:09;;;;;;;2.70;0.80;;;19.40;81.90;;;;;;5080034;27;20035;-63
2021/07/07 04:03:35;;;;;;;1.88;0.88;;;19.40;82.00;;;;;;5078552;28;20063;-64
2021/07/07 04:06:01;;;;;;;0.95;0.75;;;19.40;81.90;;;;;;5080432;27;20119;-63
2021/07/07 04:08:27;;;;;;;2.05;0.70;;;19.40;81.80;;;;;;5079846;27;20115;-64
2021/07/07 04:10:52;;;;;;;0.90;0.70;;;19.40;81.70;;;;;;5078021;28;20065;-64
2021/07/07 04:13:18;;;;;;;0.77;0.70;;;19.40;81.50;;;;;;5077949;27;20036;-63
2021/07/07 04:15:44;;;;;;;2.60;0.63;;;19.50;81.50;;;;;;5080194;28;22207;-64
2021/07/07 04:18:10;;;;;;;1.90;0.75;;;19.40;81.30;;;;;;5082793;27;20051;-64
2021/07/07 04:20:36;;;;;;;3.08;1.77;;;19.50;81.30;;;;;;5080495;27;20036;-64
2021/07/07 04:23:02;;;;;;;3.08;1.33;;;19.40;81.20;;;;;;5080922;28;20036;-64
2021/07/07 04:25:27;;;;;;;1.30;1.08;;;19.50;81.20;;;;;;5081857;27;20507;-64
2021/07/07 04:27:53;;;;;;;1.98;0.98;;;19.40;81.20;;;;;;5086070;28;20031;-64
2021/07/07 04:30:19;;;;;;;2.03;1.02;;;19.50;81.50;;;;;;5084698;27;20171;-64
2021/07/07 04:32:46;;;;;;;1.23;0.90;;;19.50;81.40;;;;;;5077020;27;20032;-63
2021/07/07 04:35:16;;;;;;;2.13;1.00;;;19.50;81.30;;;;;;5075393;27;20096;-64
2021/07/07 04:37:41;;;;;;;1.77;0.90;;;19.50;81.20;;;;;;5077511;28;20024;-64
2021/07/07 04:40:09;;;;;;;0.95;0.93;;;19.40;81.00;;;;;;5083565;28;20570;-64
2021/07/07 04:42:35;;;;;;;1.25;0.80;;;19.40;81.20;;;;;;5082831;27;20040;-64
2021/07/07 04:45:01;;;;;;;1.25;0.90;;;19.40;81.30;;;;;;5086031;27;20040;-64
2021/07/07 04:47:26;;;;;;;0.82;0.73;;;19.40;81.50;;;;;;5086684;28;20047;-64
2021/07/07 04:49:52;;;;;;;2.88;0.90;;;19.30;81.40;;;;;;5087723;27;20063;-64
2021/07/07 04:52:17;;;;;;;1.65;0.90;;;19.30;81.70;;;;;;5086911;28;20028;-65
2021/07/07 04:54:43;;;;;;;3.17;0.77;;;19.30;81.70;;;;;;5085731;27;20551;-64
2021/07/07 04:57:09;;;;;;;1.05;0.90;;;19.30;81.70;;;;;;5093287;27;20024;-64
2021/07/07 04:59:35;;;;;;;1.85;0.90;;;19.20;81.70;;;;;;5087284;28;20169;-64
2021/07/07 05:02:01;;;;;;;1.13;0.90;;;19.20;82.70;;;;;;5085140;27;20055;-65
2021/07/07 05:04:27;;;;;;;0.80;0.80;;;19.20;81.80;;;;;;5102585;27;20101;-65
2021/07/07 05:06:52;;;;;;;2.85;1.00;;;19.20;81.80;;;;;;5083563;28;20502;-64
2021/07/07 05:09:18;;;;;;;1.30;1.20;;;19.20;81.90;;;;;;5086483;27;20028;-64
2021/07/07 05:11:44;;;;;;;1.63;1.33;;;19.20;81.90;;;;;;5085398;28;20040;-64
2021/07/07 05:14:09;;;;;;;2.00;1.30;;;19.20;81.90;;;;;;5086164;27;20024;-64
2021/07/07 05:16:35;;;;;;;1.25;1.15;;;19.20;81.90;;;;;;5084875;27;20407;-64
2021/07/07 05:19:01;;;;;;;1.65;1.30;;;19.20;82.00;;;;;;5087032;28;20403;-64
2021/07/07 05:21:26;;;;;;;1.60;1.02;;;19.20;82.10;;;;;;5087079;27;20387;-64
2021/07/07 05:23:52;;;;;;;3.17;1.10;;;19.20;82.20;;;;;;5083941;28;20035;-64
2021/07/07 05:26:18;;;;;;;1.33;1.23;;;19.20;82.30;;;;;;5085763;27;20032;-64
2021/07/07 05:28:43;;;;;;;2.33;1.42;;;19.20;82.30;;;;;;5083922;28;20040;-64
2021/07/07 05:31:09;;;;;;;3.40;1.58;;;19.20;82.40;;;;;;5084989;28;20588;-64
2021/07/07 05:33:36;;;;;;;1.67;1.10;;;19.20;82.60;;;;;;5085083;27;20119;-64
2021/07/07 05:36:07;;;;;;;1.92;1.42;;;19.20;82.60;;;;;;5085136;28;20039;-64
2021/07/07 05:38:33;;;;;;;2.55;1.23;;;19.30;83.30;;;;;;5084208;27;20050;-64
2021/07/07 05:40:59;;;;;;;3.47;1.20;;;19.30;82.60;;;;;;5084544;28;20117;-64
2021/07/07 05:43:25;;;;;;;1.40;1.30;;;19.30;82.60;;;;;;5082062;28;20059;-64
2021/07/07 05:45:51;;;;;;;2.65;1.20;;;19.30;82.60;;;;;;5084760;27;20537;-64
2021/07/07 05:48:17;;;;;;;3.28;1.63;;;19.40;82.70;;;;;;5085194;28;20040;-64
2021/07/07 05:50:42;;;;;;;1.42;1.10;;;19.40;82.60;;;;;;5086583;27;20046;-64
2021/07/07 05:53:08;;;;;;;1.85;0.95;;;19.40;82.60;;;;;;5092036;27;20499;-64
2021/07/07 05:55:34;;;;;;;0.60;0.60;;;19.40;82.40;;;;;;5086315;28;20038;-64
2021/07/07 05:57:59;;;;;;;1.42;0.60;;;19.50;82.60;;;;;;5084602;28;20043;-64
2021/07/07 06:00:26;;;;;;;1.10;0.70;;;19.50;82.40;;;;;;5085696;27;20150;-63
2021/07/07 06:02:52;;;;;;;1.33;0.73;;;19.50;82.10;;;;;;5090508;28;20991;-64
2021/07/07 06:05:20;;;;;;;1.65;0.65;;;19.50;81.90;;;;;;5087698;28;20032;-64
2021/07/07 06:07:46;;;;;;;2.05;0.50;;;19.60;82.00;;;;;;5090691;28;20028;-64
2021/07/07 06:10:14;;;;;;;0.70;0.50;;;19.60;81.50;;;;;;5088286;28;20032;-65
2021/07/07 06:12:41;;;;;;;1.42;0.50;;;19.60;81.30;;;;;;5087077;27;20032;-63
2021/07/07 06:15:09;;;;;;;1.25;0.70;;;19.50;81.30;;;;;;5084667;28;20233;-63
2021/07/07 06:17:35;;;;;;;0.93;0.70;;;19.50;81.70;;;;;;5085847;27;20534;-64
2021/07/07 06:20:01;;;;;;;1.38;0.60;;;19.50;81.90;;;;;;5089454;27;20032;-64
2021/07/07 06:22:27;;;;;;;1.40;0.57;;;19.40;81.90;;;;;;5089242;27;20036;-64
2021/07/07 06:24:53;;;;;;;1.33;0.70;;;19.40;82.40;;;;;;5088902;27;20081;-64
2021/07/07 06:27:19;;;;;;;0.65;0.65;;;19.40;82.70;;;;;;5090052;28;20503;-64
2021/07/07 06:29:45;;;;;;;1.88;0.63;;;19.30;82.80;;;;;;5089878;27;20437;-64
2021/07/07 06:32:10;;;;;;;2.67;0.60;;;19.40;82.70;;;;;;5082447;28;20040;-64
2021/07/07 06:34:36;;;;;;;0.63;0.60;;;19.30;82.70;;;;;;5088607;27;20127;-63
2021/07/07 06:37:02;;;;;;;0.90;0.73;;;19.30;82.90;;;;;;5089747;27;20032;-64
2021/07/07 06:39:28;;;;;;;2.78;0.70;;;19.40;82.90;;;;;;5088110;28;20387;-64
2021/07/07 06:41:53;;;;;;;1.15;0.70;;;19.40;82.70;;;;;;5089431;27;20032;-64
2021/07/07 06:44:20;;;;;;;0.90;0.77;;;19.40;82.70;;;;;;5088811;28;20032;-64
2021/07/07 06:46:45;;;;;;;1.55;0.90;;;19.30;82.70;;;;;;5088167;28;20468;-63
2021/07/07 06:49:11;;;;;;;2.03;0.80;;;19.30;82.90;;;;;;5083116;28;20190;-64
2021/07/07 06:51:36;;;;;;;0.70;0.68;;;19.30;82.80;;;;;;5088165;28;20040;-64
2021/07/07 06:54:02;;;;;;;3.72;1.00;;;19.30;83.10;;;;;;5087552;28;20035;-64
2021/07/07 06:56:28;;;;;;;0.77;0.77;;;19.30;83.40;;;;;;5087527;27;20036;-64
2021/07/07 06:58:53;;;;;;;1.92;0.88;;;19.30;83.40;;;;;;5088210;28;20399;-64
2021/07/07 07:01:19;;;;;;;1.73;0.90;;;19.30;83.30;;;;;;5085809;27;20040;-64
2021/07/07 07:03:44;;;;;;;2.80;0.90;;;19.30;83.40;;;;;;5084486;28;20166;-63
2021/07/07 07:06:10;;;;;;;1.20;1.20;;;19.30;83.70;;;;;;5087314;28;20024;-64
2021/07/07 07:08:36;;;;;;;0.93;0.93;;;19.30;83.60;;;;;;5087179;27;20032;-63
2021/07/07 07:11:01;;;;;;;0.90;0.90;;;19.30;83.60;;;;;;5086717;28;20522;-64
2021/07/07 07:13:27;;;;;;;1.60;1.30;;;19.30;83.80;;;;;;5086724;27;20044;-63
2021/07/07 07:15:52;;;;;;;1.55;1.17;;;19.30;84.20;;;;;;5086507;28;20849;-63
2021/07/07 07:18:18;;;;;;;1.00;1.00;;;19.30;84.50;;;;;;5086739;27;20062;-64
2021/07/07 07:20:44;;;;;;;2.10;1.05;;;19.30;84.50;;;;;;5089053;27;20151;-64
2021/07/07 07:23:10;;;;;;;1.10;1.00;;;19.30;84.40;;;;;;5081535;28;20032;-64
2021/07/07 07:25:36;;;;;;;1.10;1.10;;;19.20;84.40;;;;;;5087292;27;21160;-64
2021/07/07 07:28:01;;;;;;;1.55;1.00;;;19.30;84.70;;;;;;5088991;28;20036;-63
2021/07/07 07:30:29;;;;;;;0.80;0.80;;;19.30;84.70;;;;;;5086347;27;20043;-64
2021/07/07 07:32:55;;;;;;;1.02;0.93;;;19.30;84.70;;;;;;5088309;27;20387;-64
2021/07/07 07:35:21;;;;;;;1.50;1.00;;;19.30;84.50;;;;;;5086244;28;20115;-63
2021/07/07 07:38:12;;;;;;;1.10;1.00;;;19.30;84.50;;;;;;5092964;27;20074;-64
2021/07/07 07:40:39;;;;;;;2.28;0.77;;;19.30;84.60;;;;;;5087645;27;20046;-64
2021/07/07 07:43:08;;;;;;;1.58;1.00;;;19.30;84.60;;;;;;5086965;28;20039;-63
2021/07/07 07:45:35;;;;;;;1.10;1.00;;;19.30;84.60;;;;;;5088095;27;20422;-64
2021/07/07 07:48:01;;;;;;;2.97;1.25;;;19.40;84.60;;;;;;5087103;28;20581;-64
2021/07/07 07:50:27;;;;;;;1.30;1.00;;;19.40;84.80;;;;;;5087824;27;20035;-64
2021/07/07 07:52:53;;;;;;;0.95;0.95;;;19.40;84.80;;;;;;5088952;27;20032;-64
2021/07/07 07:55:19;;;;;;;0.88;0.88;;;19.50;85.20;;;;;;5085095;28;20510;-64
2021/07/07 07:57:45;;;;;;;1.02;1.02;;;19.50;85.30;;;;;;5087984;28;20403;-64
2021/07/07 08:00:13;;;;;;;1.20;1.10;;;19.50;85.30;;;;;;5088186;27;20104;-64
2021/07/07 08:02:39;;;;;;;1.52;0.95;;;19.60;85.20;;;;;;5087556;27;20036;-64
2021/07/07 08:05:05;;;;;;;1.10;1.00;;;19.60;85.00;;;;;;5088496;27;20547;-64
2021/07/07 08:07:32;;;;;;;1.40;1.00;;;19.60;85.10;;;;;;5080182;27;20032;-64
2021/07/07 08:09:57;;;;;;;1.77;1.00;;;19.70;85.00;;;;;;5087556;27;20039;-64
2021/07/07 08:12:23;;;;;;;1.17;0.90;;;19.70;84.80;;;;;;5085684;27;20032;-64
2021/07/07 08:14:51;;;;;;;0.98;0.98;;;19.80;84.60;;;;;;5086067;28;20052;-64
2021/07/07 08:17:18;;;;;;;2.20;1.08;;;19.90;84.40;;;;;;5087180;27;20024;-64
2021/07/07 08:19:44;;;;;;;1.33;0.80;;;19.90;84.10;;;;;;5087055;27;20503;-64
2021/07/07 08:22:10;;;;;;;0.88;0.88;;;19.90;83.90;;;;;;5087049;27;20039;-64
2021/07/07 08:24:36;;;;;;;1.90;0.90;;;19.90;84.10;;;;;;5082468;27;20115;-64
2021/07/07 08:27:02;;;;;;;1.25;0.90;;;20.00;84.30;;;;;;5086976;27;20380;-64
2021/07/07 08:29:27;;;;;;;0.95;0.95;;;20.00;84.10;;;;;;5087653;27;20107;-64
2021/07/07 08:31:53;;;;;;;1.10;1.00;;;20.10;83.80;;;;;;5087474;28;20047;-64
2021/07/07 08:34:19;;;;;;;0.73;0.73;;;20.10;83.40;;;;;;5087194;27;20440;-64
2021/07/07 08:36:45;;;;;;;0.82;0.70;;;20.10;83.40;;;;;;5086470;27;20610;-64
2021/07/07 08:39:11;;;;;;;0.57;0.57;;;20.20;83.10;;;;;;5086951;28;20052;-64
2021/07/07 08:41:40;;;;;;;0.93;0.80;;;20.20;82.60;;;;;;5086978;27;20043;-64
2021/07/07 08:44:07;;;;;;;1.13;0.60;;;20.20;82.40;;;;;;5086950;28;20114;-63
2021/07/07 08:46:36;;;;;;;0.60;0.60;;;20.30;82.30;;;;;;5086966;27;20058;-64
2021/07/07 08:49:03;;;;;;;2.13;0.82;;;20.30;82.30;;;;;;5083005;27;20411;-63
2021/07/07 08:51:30;;;;;;;0.70;0.70;;;20.30;82.50;;;;;;5082932;27;20044;-63
2021/07/07 08:53:56;;;;;;;1.55;0.63;;;20.40;82.30;;;;;;5084630;27;20040;-64
2021/07/07 08:56:21;;;;;;;1.05;0.70;;;20.40;82.10;;;;;;5085578;28;20043;-64
2021/07/07 08:58:47;;;;;;;1.25;0.68;;;20.40;81.90;;;;;;5085384;28;20028;-64
2021/07/07 09:01:13;;;;;;;2.47;0.60;;;20.40;81.70;;;;;;5086050;27;20039;-64
2021/07/07 09:03:43;;;;;;;1.25;0.85;;;20.40;81.70;;;;;;5085751;28;20085;-64
2021/07/07 09:06:10;;;;;;;0.90;0.90;;;20.40;81.70;;;;;;5086043;27;20514;-64
2021/07/07 09:08:38;;;;;;;0.68;0.68;;;20.30;81.70;;;;;;5086241;27;20036;-63
2021/07/07 09:11:23;;;;;;;0.45;0.45;;;20.30;82.10;;;;;;5087131;28;20047;-64
2021/07/07 09:14:06;;;;;;;1.33;0.57;;;20.30;82.30;;;;;;5085771;27;20032;-64
2021/07/07 09:16:56;;;;;;;0.60;0.60;;;20.30;82.30;;;;;;5086999;27;20036;-64
2021/07/07 09:19:26;;;;;;;0.60;0.60;;;20.30;82.70;;;;;;5102564;27;20126;-64
2021/07/07 09:21:54;;;;;;;0.80;0.70;;;20.20;82.30;;;;;;5087652;27;20032;-64
2021/07/07 09:24:26;;;;;;;0.60;0.60;;;20.20;82.50;;;;;;5086816;28;20119;-63
2021/07/07 09:27:10;;;;;;;1.27;0.60;;;20.20;83.40;;;;;;5087392;28;20032;-64
2021/07/07 09:29:51;;;;;;;0.60;0.60;;;20.10;83.10;;;;;;5085096;27;20580;-62
2021/07/07 09:32:21;;;;;;;0.70;0.50;;;20.10;83.10;;;;;;5087373;28;20051;-63
2021/07/07 09:34:52;;;;;;;1.27;0.60;;;20.10;82.90;;;;;;5082837;28;20047;-64
2021/07/07 09:37:33;;;;;;;1.15;0.50;;;20.10;83.10;;;;;;5084148;27;20477;-64
2021/07/07 09:39:59;;;;;;;0.82;0.60;;;20.10;83.30;;;;;;5086291;28;20035;-64
2021/07/07 09:42:27;;;;;;;0.90;0.60;;;20.10;83.10;;;;;;5086288;27;20044;-64
2021/07/07 09:44:53;;;;;;;1.95;0.70;;;20.10;83.30;;;;;;5085546;27;20040;-64
2021/07/07 09:47:20;;;;;;;1.48;0.43;;;20.00;83.40;;;;;;5085426;28;20040;-63
2021/07/07 09:49:48;;;;;;;0.80;0.73;;;20.00;83.50;;;;;;5101623;27;20061;-64
2021/07/07 09:52:18;;;;;;;2.67;0.70;;;20.10;83.60;;;;;;5083859;28;20032;-64
2021/07/07 09:54:45;;;;;;;0.50;0.50;;;20.10;83.80;;;;;;5082219;27;20035;-63
2021/07/07 09:57:11;;;;;;;0.52;0.52;;;20.10;83.60;;;;;;5082583;27;20388;-63
2021/07/07 09:59:36;;;;;;;1.38;0.68;;;20.10;83.30;;;;;;5085579;28;20243;-63
2021/07/07 10:02:05;;;;;;;1.80;0.57;;;20.10;83.10;;;;;;5084020;27;20047;-64
2021/07/07 10:04:34;;;;;;;0.75;0.75;;;20.10;83.10;;;;;;5083639;27;20181;-63
2021/07/07 10:07:01;;;;;;;0.85;0.70;;;20.10;83.10;;;;;;5085588;28;20029;-63
2021/07/07 10:09:27;;;;;;;0.80;0.60;;;20.10;83.10;;;;;;5084701;27;20044;-63
2021/07/07 10:11:56;;;;;;;0.70;0.70;;;20.10;83.10;;;;;;5076694;27;20396;-63
2021/07/07 10:14:23;;;;;;;1.20;0.80;;;20.10;83.80;;;;;;5083712;27;20511;-64
2021/07/07 10:16:52;;;;;;;0.50;0.50;;;20.10;83.30;;;;;;5086115;27;20067;-63
2021/07/07 10:19:18;;;;;;;0.50;0.50;;;20.10;83.60;;;;;;5086430;28;20123;-63
2021/07/07 10:21:45;;;;;;;2.25;0.60;;;20.20;83.50;;;;;;5087118;27;20499;-63
2021/07/07 10:24:12;;;;;;;1.10;0.50;;;20.20;83.30;;;;;;5086238;28;20406;-63
2021/07/07 10:26:39;;;;;;;0.98;0.55;;;20.30;83.30;;;;;;5086346;27;20107;-63
2021/07/07 10:29:06;;;;;;;3.22;0.50;;;20.30;83.00;;;;;;5086032;27;20119;-63
2021/07/07 10:31:52;;;;;;;0.60;0.60;;;20.30;82.80;;;;;;5085427;28;20032;-64
2021/07/07 10:34:19;;;;;;;;;;;20.40;83.30;;;;;;5086041;27;20031;-63
2021/07/07 10:36:44;;;;;;;0.50;0.45;;;20.40;83.00;;;;;;5084296;27;19918;-63
2021/07/07 10:39:13;;;;;;;1.88;0.70;;;20.40;82.40;;;;;;5084658;28;20032;-63
2021/07/07 10:41:41;;;;;;;0.55;0.55;;;20.50;82.30;;;;;;5080935;27;20217;-63
2021/07/07 10:44:22;;;;;;;0.57;0.57;;;20.50;82.40;;;;;;5084109;28;20511;-63
2021/07/07 10:46:54;;;;;;;0.98;0.90;;;20.50;82.20;;;;;;5085727;28;20407;-64
2021/07/07 10:49:29;;;;;;;0.88;0.88;;;20.50;82.00;;;;;;5086050;28;20039;-64
2021/07/07 10:51:59;;;;;;;1.92;0.90;;;20.60;82.40;;;;;;5087506;28;20619;-63
2021/07/07 10:54:30;;;;;;;0.75;0.75;;;20.60;82.20;;;;;;5087451;27;20075;-64
2021/07/07 10:56:57;;;;;;;1.02;0.80;;;20.60;82.20;;;;;;5083790;28;20421;-63
2021/07/07 10:59:35;;;;;;;0.70;0.70;;;20.60;82.00;;;;;;5089756;28;20380;-64
2021/07/07 11:02:06;;;;;;;1.15;0.70;;;20.70;81.60;;;;;;5087964;27;20660;-63
2021/07/07 11:04:40;;;;;;;1.35;0.80;;;20.70;81.70;;;;;;5081295;27;20044;-63
2021/07/07 11:07:24;;;;;;;1.05;0.65;;;20.70;81.90;;;;;;5088630;28;20058;-64
2021/07/07 11:09:52;;;;;;;0.88;0.63;;;20.80;81.50;;;;;;5088693;27;20035;-64
2021/07/07 11:12:25;;;;;;;0.60;0.57;;;20.80;81.40;;;;;;5088473;28;20059;-64
2021/07/07 11:15:18;;;;;;;0.73;0.60;;;20.80;81.10;;;;;;5087345;28;20081;-63
2021/07/07 11:17:47;;;;;;;0.65;0.63;;;20.90;81.20;;;;;;5085942;27;20043;-64
2021/07/07 11:20:23;;;;;;;2.83;0.95;;;20.90;81.00;;;;;;5088352;28;20040;-63
2021/07/07 11:23:03;;;;;;;1.38;0.80;;;20.90;80.80;;;;;;5087070;28;20513;-63
2021/07/07 11:25:31;;;;;;;1.92;0.80;;;20.90;80.50;;;;;;5087304;27;20572;-64
2021/07/07 11:27:58;;;;;;;6.63;1.42;;;21.00;80.70;;;;;;5085919;28;20079;-63
2021/07/07 11:30:24;;;;;;;0.80;0.80;;;21.00;80.70;;;;;;5087102;28;20036;-64
2021/07/07 11:32:54;;;;;;;0.70;0.70;;;21.00;80.60;;;;;;5087425;27;20032;-64
2021/07/07 11:35:30;;;;;;;1.92;0.75;;;21.00;80.30;;;;;;5094851;27;20538;-64
2021/07/07 11:37:57;;;;;;;0.70;0.70;;;21.10;80.20;;;;;;5082141;28;20024;-64
2021/07/07 11:40:24;;;;;;;0.88;0.80;;;21.10;81.00;;;;;;5088366;27;20033;-64
2021/07/07 11:42:55;;;;;;;2.08;0.90;;;21.10;79.60;;;;;;5088330;28;20024;-64
2021/07/07 11:45:24;;;;;;;0.93;0.57;;;21.10;79.10;;;;;;5087193;27;20039;-64
2021/07/07 11:47:59;;;;;;;0.70;0.70;;;21.20;79.60;;;;;;5088704;28;20138;-64
2021/07/07 11:50:26;;;;;;;0.98;0.80;;;21.20;78.40;;;;;;5087026;27;20043;-64
2021/07/07 11:52:57;;;;;;;0.70;0.50;;;21.20;78.70;;;;;;5087457;27;20047;-64
2021/07/07 11:55:42;;;;;;;0.70;0.70;;;21.20;78.80;;;;;;5086874;28;20342;-64
2021/07/07 11:58:09;;;;;;;1.08;0.70;;;21.20;78.10;;;;;;5087661;27;20039;-64
2021/07/07 12:00:40;;;;;;;1.35;0.70;;;21.30;78.20;;;;;;5087426;27;20036;-64
2021/07/07 12:03:06;;;;;;;1.13;0.70;;;21.30;77.40;;;;;;5087686;28;20119;-64
2021/07/07 12:05:32;;;;;;;1.60;0.50;;;21.30;78.10;;;;;;5086725;27;20111;-63
2021/07/07 12:08:17;;;;;;;1.10;0.50;;;21.30;77.90;;;;;;5087243;28;20059;-64
2021/07/07 12:10:43;;;;;;;;;;;21.40;77.50;;;;;;5087330;27;20549;-64
2021/07/07 12:13:22;;;;;;;0.68;0.52;;;21.40;77.90;;;;;;5086733;27;19912;-64
2021/07/07 12:15:49;;;;;;;2.55;0.50;;;21.50;77.20;;;;;;5087200;28;20039;-64
2021/07/07 12:18:26;;;;;;;0.88;0.40;;;21.50;76.80;;;;;;5087644;27;20024;-64
2021/07/07 12:20:52;;;;;;;1.67;0.63;;;21.50;76.60;;;;;;5086234;28;20047;-64
2021/07/07 12:23:18;;;;;;;0.55;0.40;;;21.50;76.90;;;;;;5092944;27;20659;-64
2021/07/07 12:25:43;;;;;;;0.95;0.63;;;21.60;76.40;;;;;;5085395;28;20108;-65
2021/07/07 12:28:10;;;;;;;0.60;0.50;;;21.60;76.30;;;;;;5087167;28;20032;-64
2021/07/07 12:30:37;;;;;;;0.73;0.47;;;21.60;76.90;;;;;;5084887;28;20109;-64
2021/07/07 12:33:04;;;;;;;1.27;0.57;;;21.60;76.30;;;;;;5086918;27;20024;-64
2021/07/07 12:35:30;;;;;;;0.60;0.50;;;21.60;76.10;;;;;;5101304;27;20034;-64
2021/07/07 12:37:56;;;;;;;0.55;0.55;;;21.60;76.30;;;;;;5087517;27;20028;-64
2021/07/07 12:40:22;;;;;;;0.57;0.50;;;21.60;76.60;;;;;;5086786;27;20534;-65
2021/07/07 12:42:54;;;;;;;0.40;0.40;;;21.70;76.90;;;;;;5086318;28;20396;-64
2021/07/07 12:45:20;;;;;;;0.20;0.20;;;21.70;76.80;;;;;;5087011;27;20063;-64
2021/07/07 12:48:05;;;;;;;0.30;0.30;;;21.70;76.20;;;;;;5082195;28;20044;-64
2021/07/07 12:50:35;;;;;;;;;;;21.70;75.80;;;;;;5080967;28;20535;-64
2021/07/07 12:53:01;;;;;;;0.57;0.45;;;21.80;76.20;;;;;;5079138;28;19912;-64